sensor_id;sensor_type;location;lat;lon;timestamp;P1;durP1;ratioP1;P2;durP2;ratioP2
61640;SDS011;62201;49.966;8.342;2023-04-24T00:02:08;2.40;;;0.70;;
61640;SDS011;62201;49.966;8.342;2023-04-24T00:04:36;2.17;;;0.80;;
61640;SDS011;62201;49.966;8.342;2023-04-24T00:07:05;3.85;;;0.70;;
61640;SDS011;62201;49.966;8.342;2023-04-24T00:09:31;2.70;;;0.60;;
61640;SDS011;62201;49.966;8.342;2023-04-24T00:11:57;3.97;;;0.70;;
61640;SDS011;62201;49.966;8.342;2023-04-24T00:14:22;2.33;;;0.60;;
61640;SDS011;62201;49.966;8.342;2023-04-24T00:16:48;4.35;;;0.90;;
61640;SDS011;62201;49.966;8.342;2023-04-24T00:19:13;3.15;;;0.70;;
61640;SDS011;62201;49.966;8.342;2023-04-24T00:21:39;1.90;;;0.60;;
61640;SDS011;62201;49.966;8.342;2023-04-24T00:24:04;2.80;;;0.60;;
61640;SDS011;62201;49.966;8.342;2023-04-24T00:26:30;2.33;;;0.85;;
61640;SDS011;62201;49.966;8.342;2023-04-24T00:28:55;2.95;;;0.90;;
61640;SDS011;62201;49.966;8.342;2023-04-24T00:31:21;2.47;;;0.80;;
61640;SDS011;62201;49.966;8.342;2023-04-24T00:33:46;2.45;;;0.63;;
61640;SDS011;62201;49.966;8.342;2023-04-24T00:36:11;3.78;;;0.80;;
61640;SDS011;62201;49.966;8.342;2023-04-24T00:38:37;1.63;;;0.70;;
61640;SDS011;62201;49.966;8.342;2023-04-24T00:41:02;4.28;;;0.93;;
61640;SDS011;62201;49.966;8.342;2023-04-24T00:43:27;3.10;;;0.65;;
61640;SDS011;62201;49.966;8.342;2023-04-24T00:45:53;2.55;;;0.68;;
61640;SDS011;62201;49.966;8.342;2023-04-24T00:48:19;4.15;;;0.80;;
61640;SDS011;62201;49.966;8.342;2023-04-24T00:50:45;2.67;;;0.70;;
61640;SDS011;62201;49.966;8.342;2023-04-24T00:53:10;1.55;;;0.73;;
61640;SDS011;62201;49.966;8.342;2023-04-24T00:55:36;5.57;;;1.48;;
61640;SDS011;62201;49.966;8.342;2023-04-24T00:58:02;3.42;;;0.85;;
61640;SDS011;62201;49.966;8.342;2023-04-24T01:00:27;2.25;;;0.60;;
61640;SDS011;62201;49.966;8.342;2023-04-24T01:02:54;6.32;;;0.80;;
61640;SDS011;62201;49.966;8.342;2023-04-24T01:05:20;2.63;;;0.60;;
61640;SDS011;62201;49.966;8.342;2023-04-24T01:07:46;5.30;;;0.82;;
61640;SDS011;62201;49.966;8.342;2023-04-24T01:10:14;3.33;;;0.90;;
61640;SDS011;62201;49.966;8.342;2023-04-24T01:12:40;2.60;;;0.75;;
61640;SDS011;62201;49.966;8.342;2023-04-24T01:15:05;5.03;;;0.82;;
61640;SDS011;62201;49.966;8.342;2023-04-24T01:17:32;3.75;;;0.70;;
61640;SDS011;62201;49.966;8.342;2023-04-24T01:19:58;2.90;;;0.90;;
61640;SDS011;62201;49.966;8.342;2023-04-24T01:22:25;3.70;;;0.88;;
61640;SDS011;62201;49.966;8.342;2023-04-24T01:24:51;2.83;;;0.85;;
61640;SDS011;62201;49.966;8.342;2023-04-24T01:27:17;6.55;;;1.10;;
61640;SDS011;62201;49.966;8.342;2023-04-24T01:29:42;2.67;;;1.13;;
61640;SDS011;62201;49.966;8.342;2023-04-24T01:32:08;1.58;;;1.05;;
61640;SDS011;62201;49.966;8.342;2023-04-24T01:34:33;4.38;;;1.10;;
61640;SDS011;62201;49.966;8.342;2023-04-24T01:36:59;3.08;;;1.08;;
61640;SDS011;62201;49.966;8.342;2023-04-24T01:39:25;6.07;;;1.00;;
61640;SDS011;62201;49.966;8.342;2023-04-24T01:41:53;2.67;;;1.10;;
61640;SDS011;62201;49.966;8.342;2023-04-24T01:44:19;1.35;;;0.75;;
61640;SDS011;62201;49.966;8.342;2023-04-24T01:46:46;2.95;;;0.70;;
61640;SDS011;62201;49.966;8.342;2023-04-24T01:49:11;2.15;;;0.80;;
61640;SDS011;62201;49.966;8.342;2023-04-24T01:51:37;4.15;;;0.70;;
61640;SDS011;62201;49.966;8.342;2023-04-24T01:54:02;1.92;;;0.70;;
61640;SDS011;62201;49.966;8.342;2023-04-24T01:56:30;2.42;;;0.90;;
61640;SDS011;62201;49.966;8.342;2023-04-24T01:58:58;4.43;;;0.70;;
61640;SDS011;62201;49.966;8.342;2023-04-24T02:01:25;2.58;;;0.70;;
61640;SDS011;62201;49.966;8.342;2023-04-24T02:03:50;3.40;;;0.90;;
61640;SDS011;62201;49.966;8.342;2023-04-24T02:06:16;4.30;;;0.90;;
61640;SDS011;62201;49.966;8.342;2023-04-24T02:08:41;3.80;;;0.60;;
61640;SDS011;62201;49.966;8.342;2023-04-24T02:11:10;5.82;;;0.85;;
61640;SDS011;62201;49.966;8.342;2023-04-24T02:13:35;7.20;;;0.70;;
61640;SDS011;62201;49.966;8.342;2023-04-24T02:16:01;3.05;;;0.85;;
61640;SDS011;62201;49.966;8.342;2023-04-24T02:18:26;3.38;;;0.70;;
61640;SDS011;62201;49.966;8.342;2023-04-24T02:20:51;3.63;;;0.70;;
61640;SDS011;62201;49.966;8.342;2023-04-24T02:23:17;4.13;;;0.80;;
61640;SDS011;62201;49.966;8.342;2023-04-24T02:25:42;3.47;;;1.05;;
61640;SDS011;62201;49.966;8.342;2023-04-24T02:28:07;1.95;;;0.75;;
61640;SDS011;62201;49.966;8.342;2023-04-24T02:30:33;4.43;;;0.70;;
61640;SDS011;62201;49.966;8.342;2023-04-24T02:32:58;2.35;;;0.70;;
61640;SDS011;62201;49.966;8.342;2023-04-24T02:35:23;2.92;;;0.60;;
61640;SDS011;62201;49.966;8.342;2023-04-24T02:37:49;3.17;;;0.57;;
61640;SDS011;62201;49.966;8.342;2023-04-24T02:40:14;1.95;;;0.60;;
61640;SDS011;62201;49.966;8.342;2023-04-24T02:42:40;1.50;;;0.60;;
61640;SDS011;62201;49.966;8.342;2023-04-24T02:45:05;3.47;;;0.70;;
61640;SDS011;62201;49.966;8.342;2023-04-24T02:47:31;2.38;;;0.52;;
61640;SDS011;62201;49.966;8.342;2023-04-24T02:49:56;1.83;;;0.68;;
61640;SDS011;62201;49.966;8.342;2023-04-24T02:52:22;1.83;;;0.55;;
61640;SDS011;62201;49.966;8.342;2023-04-24T02:54:47;1.52;;;0.52;;
61640;SDS011;62201;49.966;8.342;2023-04-24T02:57:12;6.10;;;0.80;;
61640;SDS011;62201;49.966;8.342;2023-04-24T02:59:38;3.35;;;0.82;;
61640;SDS011;62201;49.966;8.342;2023-04-24T03:02:03;1.88;;;0.50;;
61640;SDS011;62201;49.966;8.342;2023-04-24T03:04:29;4.93;;;0.77;;
61640;SDS011;62201;49.966;8.342;2023-04-24T03:06:54;2.65;;;0.60;;
61640;SDS011;62201;49.966;8.342;2023-04-24T03:09:20;4.03;;;0.65;;
61640;SDS011;62201;49.966;8.342;2023-04-24T03:11:46;3.47;;;0.45;;
61640;SDS011;62201;49.966;8.342;2023-04-24T03:14:13;4.53;;;0.55;;
61640;SDS011;62201;49.966;8.342;2023-04-24T03:16:39;0.68;;;0.40;;
61640;SDS011;62201;49.966;8.342;2023-04-24T03:19:04;1.42;;;0.50;;
61640;SDS011;62201;49.966;8.342;2023-04-24T03:21:32;3.03;;;0.50;;
61640;SDS011;62201;49.966;8.342;2023-04-24T03:23:57;2.53;;;0.50;;
61640;SDS011;62201;49.966;8.342;2023-04-24T03:26:23;4.25;;;0.52;;
61640;SDS011;62201;49.966;8.342;2023-04-24T03:28:48;2.72;;;0.63;;
61640;SDS011;62201;49.966;8.342;2023-04-24T03:31:14;3.45;;;0.50;;
61640;SDS011;62201;49.966;8.342;2023-04-24T03:33:40;2.70;;;0.57;;
61640;SDS011;62201;49.966;8.342;2023-04-24T03:36:06;1.98;;;0.40;;
61640;SDS011;62201;49.966;8.342;2023-04-24T03:38:31;2.70;;;0.45;;
61640;SDS011;62201;49.966;8.342;2023-04-24T03:40:57;2.65;;;0.60;;
61640;SDS011;62201;49.966;8.342;2023-04-24T03:43:22;5.45;;;0.80;;
61640;SDS011;62201;49.966;8.342;2023-04-24T03:45:47;1.55;;;0.65;;
61640;SDS011;62201;49.966;8.342;2023-04-24T03:48:13;4.38;;;0.60;;
61640;SDS011;62201;49.966;8.342;2023-04-24T03:50:38;1.52;;;0.60;;
61640;SDS011;62201;49.966;8.342;2023-04-24T03:53:03;1.15;;;0.60;;
61640;SDS011;62201;49.966;8.342;2023-04-24T03:55:29;1.75;;;0.50;;
61640;SDS011;62201;49.966;8.342;2023-04-24T03:57:54;0.50;;;0.40;;
61640;SDS011;62201;49.966;8.342;2023-04-24T04:00:20;1.20;;;0.70;;
61640;SDS011;62201;49.966;8.342;2023-04-24T04:02:46;0.93;;;0.50;;
61640;SDS011;62201;49.966;8.342;2023-04-24T04:05:11;1.45;;;0.68;;
61640;SDS011;62201;49.966;8.342;2023-04-24T04:07:37;2.20;;;0.50;;
61640;SDS011;62201;49.966;8.342;2023-04-24T04:10:02;3.72;;;0.73;;
61640;SDS011;62201;49.966;8.342;2023-04-24T04:12:28;1.50;;;0.70;;
61640;SDS011;62201;49.966;8.342;2023-04-24T04:14:54;1.85;;;0.90;;
61640;SDS011;62201;49.966;8.342;2023-04-24T04:17:19;2.67;;;0.80;;
61640;SDS011;62201;49.966;8.342;2023-04-24T04:19:44;2.25;;;1.00;;
61640;SDS011;62201;49.966;8.342;2023-04-24T04:22:10;3.00;;;1.40;;
61640;SDS011;62201;49.966;8.342;2023-04-24T04:24:35;1.30;;;1.00;;
61640;SDS011;62201;49.966;8.342;2023-04-24T04:27:03;2.67;;;0.90;;
61640;SDS011;62201;49.966;8.342;2023-04-24T04:29:31;1.45;;;0.95;;
61640;SDS011;62201;49.966;8.342;2023-04-24T04:31:57;2.55;;;0.90;;
61640;SDS011;62201;49.966;8.342;2023-04-24T04:34:23;1.98;;;1.10;;
61640;SDS011;62201;49.966;8.342;2023-04-24T04:36:48;2.00;;;1.40;;
61640;SDS011;62201;49.966;8.342;2023-04-24T04:39:15;2.88;;;1.10;;
61640;SDS011;62201;49.966;8.342;2023-04-24T04:41:41;1.25;;;1.05;;
61640;SDS011;62201;49.966;8.342;2023-04-24T04:44:07;4.50;;;1.00;;
61640;SDS011;62201;49.966;8.342;2023-04-24T04:46:33;4.40;;;1.00;;
61640;SDS011;62201;49.966;8.342;2023-04-24T04:49:00;3.88;;;1.48;;
61640;SDS011;62201;49.966;8.342;2023-04-24T04:51:26;1.88;;;1.00;;
61640;SDS011;62201;49.966;8.342;2023-04-24T04:53:52;2.92;;;1.10;;
61640;SDS011;62201;49.966;8.342;2023-04-24T04:56:17;2.13;;;1.10;;
61640;SDS011;62201;49.966;8.342;2023-04-24T04:58:43;3.60;;;1.23;;
61640;SDS011;62201;49.966;8.342;2023-04-24T05:01:08;1.27;;;0.85;;
61640;SDS011;62201;49.966;8.342;2023-04-24T05:03:33;3.85;;;1.13;;
61640;SDS011;62201;49.966;8.342;2023-04-24T05:05:59;1.75;;;1.30;;
61640;SDS011;62201;49.966;8.342;2023-04-24T05:08:25;2.67;;;1.23;;
61640;SDS011;62201;49.966;8.342;2023-04-24T05:10:50;1.88;;;1.08;;
61640;SDS011;62201;49.966;8.342;2023-04-24T05:13:15;2.78;;;1.30;;
61640;SDS011;62201;49.966;8.342;2023-04-24T05:15:41;3.28;;;1.45;;
61640;SDS011;62201;49.966;8.342;2023-04-24T05:18:06;2.13;;;1.35;;
61640;SDS011;62201;49.966;8.342;2023-04-24T05:20:31;3.85;;;1.50;;
61640;SDS011;62201;49.966;8.342;2023-04-24T05:22:57;1.92;;;1.40;;
61640;SDS011;62201;49.966;8.342;2023-04-24T05:25:22;2.30;;;1.58;;
61640;SDS011;62201;49.966;8.342;2023-04-24T05:27:47;1.92;;;1.38;;
61640;SDS011;62201;49.966;8.342;2023-04-24T05:30:13;4.40;;;1.60;;
61640;SDS011;62201;49.966;8.342;2023-04-24T05:32:39;2.33;;;1.52;;
61640;SDS011;62201;49.966;8.342;2023-04-24T05:35:04;3.13;;;1.70;;
61640;SDS011;62201;49.966;8.342;2023-04-24T05:37:30;3.30;;;1.67;;
61640;SDS011;62201;49.966;8.342;2023-04-24T05:39:55;1.77;;;1.48;;
61640;SDS011;62201;49.966;8.342;2023-04-24T05:42:21;3.85;;;1.50;;
61640;SDS011;62201;49.966;8.342;2023-04-24T05:44:49;2.60;;;1.33;;
61640;SDS011;62201;49.966;8.342;2023-04-24T05:47:15;3.83;;;1.55;;
61640;SDS011;62201;49.966;8.342;2023-04-24T05:49:40;3.47;;;1.58;;
61640;SDS011;62201;49.966;8.342;2023-04-24T05:52:06;3.88;;;1.63;;
61640;SDS011;62201;49.966;8.342;2023-04-24T05:54:33;5.15;;;1.75;;
61640;SDS011;62201;49.966;8.342;2023-04-24T05:56:59;3.15;;;1.40;;
61640;SDS011;62201;49.966;8.342;2023-04-24T05:59:26;4.95;;;1.85;;
61640;SDS011;62201;49.966;8.342;2023-04-24T06:01:51;8.88;;;1.80;;
61640;SDS011;62201;49.966;8.342;2023-04-24T06:04:17;2.75;;;1.88;;
61640;SDS011;62201;49.966;8.342;2023-04-24T06:06:42;4.20;;;1.67;;
61640;SDS011;62201;49.966;8.342;2023-04-24T06:09:07;2.30;;;1.50;;
61640;SDS011;62201;49.966;8.342;2023-04-24T06:11:33;2.72;;;1.63;;
61640;SDS011;62201;49.966;8.342;2023-04-24T06:13:58;4.07;;;1.70;;
61640;SDS011;62201;49.966;8.342;2023-04-24T06:16:23;4.07;;;1.90;;
61640;SDS011;62201;49.966;8.342;2023-04-24T06:18:49;3.65;;;1.80;;
61640;SDS011;62201;49.966;8.342;2023-04-24T06:21:15;3.25;;;1.85;;
61640;SDS011;62201;49.966;8.342;2023-04-24T06:23:41;5.63;;;2.03;;
61640;SDS011;62201;49.966;8.342;2023-04-24T06:26:06;2.03;;;1.60;;
61640;SDS011;62201;49.966;8.342;2023-04-24T06:28:32;3.13;;;1.70;;
61640;SDS011;62201;49.966;8.342;2023-04-24T06:30:57;3.38;;;2.15;;
61640;SDS011;62201;49.966;8.342;2023-04-24T06:33:23;2.67;;;2.05;;
61640;SDS011;62201;49.966;8.342;2023-04-24T06:35:48;3.72;;;2.05;;
61640;SDS011;62201;49.966;8.342;2023-04-24T06:38:13;4.53;;;1.92;;
61640;SDS011;62201;49.966;8.342;2023-04-24T06:40:39;4.22;;;2.25;;
61640;SDS011;62201;49.966;8.342;2023-04-24T06:43:05;6.25;;;2.10;;
61640;SDS011;62201;49.966;8.342;2023-04-24T06:45:31;4.13;;;2.22;;
61640;SDS011;62201;49.966;8.342;2023-04-24T06:47:56;5.13;;;2.45;;
61640;SDS011;62201;49.966;8.342;2023-04-24T06:50:22;3.70;;;2.30;;
61640;SDS011;62201;49.966;8.342;2023-04-24T06:52:47;7.20;;;2.70;;
61640;SDS011;62201;49.966;8.342;2023-04-24T06:55:13;4.70;;;2.05;;
61640;SDS011;62201;49.966;8.342;2023-04-24T06:57:40;3.28;;;2.28;;
61640;SDS011;62201;49.966;8.342;2023-04-24T07:00:05;3.70;;;2.15;;
61640;SDS011;62201;49.966;8.342;2023-04-24T07:02:32;3.80;;;2.00;;
61640;SDS011;62201;49.966;8.342;2023-04-24T07:04:57;2.47;;;2.22;;
61640;SDS011;62201;49.966;8.342;2023-04-24T07:07:22;4.13;;;2.30;;
61640;SDS011;62201;49.966;8.342;2023-04-24T07:09:48;2.30;;;1.83;;
61640;SDS011;62201;49.966;8.342;2023-04-24T07:12:15;4.13;;;1.92;;
61640;SDS011;62201;49.966;8.342;2023-04-24T07:14:41;3.25;;;2.08;;
61640;SDS011;62201;49.966;8.342;2023-04-24T07:17:07;2.65;;;2.05;;
61640;SDS011;62201;49.966;8.342;2023-04-24T07:19:33;4.40;;;2.30;;
61640;SDS011;62201;49.966;8.342;2023-04-24T07:22:00;3.65;;;2.50;;
61640;SDS011;62201;49.966;8.342;2023-04-24T07:24:26;3.92;;;2.28;;
61640;SDS011;62201;49.966;8.342;2023-04-24T07:26:51;3.75;;;2.13;;
61640;SDS011;62201;49.966;8.342;2023-04-24T07:29:17;4.07;;;1.90;;
61640;SDS011;62201;49.966;8.342;2023-04-24T07:31:43;3.75;;;1.90;;
61640;SDS011;62201;49.966;8.342;2023-04-24T07:34:09;2.90;;;1.90;;
61640;SDS011;62201;49.966;8.342;2023-04-24T07:36:34;3.20;;;1.80;;
61640;SDS011;62201;49.966;8.342;2023-04-24T07:39:00;2.35;;;1.90;;
61640;SDS011;62201;49.966;8.342;2023-04-24T07:41:26;5.13;;;2.25;;
61640;SDS011;62201;49.966;8.342;2023-04-24T07:43:52;4.22;;;2.00;;
61640;SDS011;62201;49.966;8.342;2023-04-24T07:46:18;2.70;;;1.95;;
61640;SDS011;62201;49.966;8.342;2023-04-24T07:48:45;3.00;;;1.80;;
61640;SDS011;62201;49.966;8.342;2023-04-24T07:51:11;6.57;;;1.83;;
61640;SDS011;62201;49.966;8.342;2023-04-24T07:53:38;3.60;;;1.80;;
61640;SDS011;62201;49.966;8.342;2023-04-24T07:56:05;2.17;;;1.52;;
61640;SDS011;62201;49.966;8.342;2023-04-24T07:58:30;3.78;;;1.60;;
61640;SDS011;62201;49.966;8.342;2023-04-24T08:00:56;5.60;;;2.22;;
61640;SDS011;62201;49.966;8.342;2023-04-24T08:03:21;2.20;;;1.80;;
61640;SDS011;62201;49.966;8.342;2023-04-24T08:05:47;7.03;;;1.83;;
61640;SDS011;62201;49.966;8.342;2023-04-24T08:08:12;1.92;;;1.60;;
61640;SDS011;62201;49.966;8.342;2023-04-24T08:10:38;3.15;;;1.75;;
61640;SDS011;62201;49.966;8.342;2023-04-24T08:13:03;3.25;;;1.70;;
61640;SDS011;62201;49.966;8.342;2023-04-24T08:15:29;3.53;;;1.70;;
61640;SDS011;62201;49.966;8.342;2023-04-24T08:17:54;2.13;;;1.80;;
61640;SDS011;62201;49.966;8.342;2023-04-24T08:20:19;3.10;;;1.98;;
61640;SDS011;62201;49.966;8.342;2023-04-24T08:22:45;3.15;;;1.92;;
61640;SDS011;62201;49.966;8.342;2023-04-24T08:25:12;2.03;;;1.60;;
61640;SDS011;62201;49.966;8.342;2023-04-24T08:27:38;4.80;;;1.60;;
61640;SDS011;62201;49.966;8.342;2023-04-24T08:30:04;3.35;;;1.45;;
61640;SDS011;62201;49.966;8.342;2023-04-24T08:32:30;1.75;;;1.55;;
61640;SDS011;62201;49.966;8.342;2023-04-24T08:34:59;2.13;;;1.40;;
61640;SDS011;62201;49.966;8.342;2023-04-24T08:37:25;6.35;;;1.30;;
61640;SDS011;62201;49.966;8.342;2023-04-24T08:39:52;2.30;;;1.27;;
61640;SDS011;62201;49.966;8.342;2023-04-24T08:42:18;5.47;;;1.73;;
61640;SDS011;62201;49.966;8.342;2023-04-24T08:44:45;2.63;;;1.45;;
61640;SDS011;62201;49.966;8.342;2023-04-24T08:47:11;5.95;;;1.75;;
61640;SDS011;62201;49.966;8.342;2023-04-24T08:49:37;2.78;;;2.03;;
61640;SDS011;62201;49.966;8.342;2023-04-24T08:52:04;2.67;;;1.85;;
61640;SDS011;62201;49.966;8.342;2023-04-24T08:54:30;3.20;;;1.95;;
61640;SDS011;62201;49.966;8.342;2023-04-24T08:56:58;2.15;;;1.95;;
61640;SDS011;62201;49.966;8.342;2023-04-24T08:59:31;4.00;;;1.70;;
61640;SDS011;62201;49.966;8.342;2023-04-24T09:01:57;2.75;;;1.90;;
61640;SDS011;62201;49.966;8.342;2023-04-24T09:04:23;2.90;;;2.10;;
61640;SDS011;62201;49.966;8.342;2023-04-24T09:06:55;2.47;;;1.50;;
61640;SDS011;62201;49.966;8.342;2023-04-24T09:09:23;3.03;;;1.40;;
61640;SDS011;62201;49.966;8.342;2023-04-24T09:11:50;3.20;;;1.50;;
61640;SDS011;62201;49.966;8.342;2023-04-24T09:14:16;3.45;;;1.60;;
61640;SDS011;62201;49.966;8.342;2023-04-24T09:16:42;3.72;;;1.33;;
61640;SDS011;62201;49.966;8.342;2023-04-24T09:19:08;2.53;;;1.50;;
61640;SDS011;62201;49.966;8.342;2023-04-24T09:21:34;2.03;;;1.60;;
61640;SDS011;62201;49.966;8.342;2023-04-24T09:24:01;2.45;;;1.35;;
61640;SDS011;62201;49.966;8.342;2023-04-24T09:26:32;2.28;;;1.30;;
61640;SDS011;62201;49.966;8.342;2023-04-24T09:28:59;2.13;;;1.35;;
61640;SDS011;62201;49.966;8.342;2023-04-24T09:31:26;1.83;;;1.30;;
61640;SDS011;62201;49.966;8.342;2023-04-24T09:39:01;2.03;;;1.10;;
61640;SDS011;62201;49.966;8.342;2023-04-24T09:41:27;2.85;;;1.20;;
61640;SDS011;62201;49.966;8.342;2023-04-24T09:43:56;2.20;;;1.10;;
61640;SDS011;62201;49.966;8.342;2023-04-24T09:46:28;1.38;;;1.10;;
61640;SDS011;62201;49.966;8.342;2023-04-24T09:48:55;2.10;;;1.20;;
61640;SDS011;62201;49.966;8.342;2023-04-24T09:51:32;2.83;;;1.25;;
61640;SDS011;62201;49.966;8.342;2023-04-24T09:54:00;1.48;;;1.02;;
61640;SDS011;62201;49.966;8.342;2023-04-24T09:56:25;3.63;;;1.15;;
61640;SDS011;62201;49.966;8.342;2023-04-24T09:58:51;2.42;;;1.38;;
61640;SDS011;62201;49.966;8.342;2023-04-24T10:01:28;1.90;;;1.13;;
61640;SDS011;62201;49.966;8.342;2023-04-24T10:03:55;2.38;;;1.20;;
61640;SDS011;62201;49.966;8.342;2023-04-24T10:06:20;2.35;;;1.10;;
61640;SDS011;62201;49.966;8.342;2023-04-24T10:08:46;2.92;;;1.05;;
61640;SDS011;62201;49.966;8.342;2023-04-24T10:11:13;3.33;;;1.25;;
61640;SDS011;62201;49.966;8.342;2023-04-24T10:13:39;1.77;;;1.00;;
61640;SDS011;62201;49.966;8.342;2023-04-24T10:16:05;2.80;;;1.50;;
61640;SDS011;62201;49.966;8.342;2023-04-24T10:18:32;2.13;;;1.35;;
61640;SDS011;62201;49.966;8.342;2023-04-24T10:20:59;2.25;;;1.40;;
61640;SDS011;62201;49.966;8.342;2023-04-24T10:23:26;2.00;;;1.40;;
61640;SDS011;62201;49.966;8.342;2023-04-24T10:25:52;2.72;;;1.20;;
61640;SDS011;62201;49.966;8.342;2023-04-24T10:28:19;2.30;;;1.38;;
61640;SDS011;62201;49.966;8.342;2023-04-24T10:30:45;3.47;;;1.63;;
61640;SDS011;62201;49.966;8.342;2023-04-24T10:33:12;2.38;;;1.40;;
61640;SDS011;62201;49.966;8.342;2023-04-24T10:35:42;3.15;;;1.50;;
61640;SDS011;62201;49.966;8.342;2023-04-24T10:38:13;2.55;;;1.30;;
61640;SDS011;62201;49.966;8.342;2023-04-24T10:40:41;2.40;;;1.63;;
61640;SDS011;62201;49.966;8.342;2023-04-24T10:43:07;2.45;;;1.30;;
61640;SDS011;62201;49.966;8.342;2023-04-24T10:45:37;1.48;;;1.10;;
61640;SDS011;62201;49.966;8.342;2023-04-24T10:48:09;1.90;;;1.30;;
61640;SDS011;62201;49.966;8.342;2023-04-24T10:50:45;3.53;;;1.20;;
61640;SDS011;62201;49.966;8.342;2023-04-24T10:55:45;1.95;;;1.00;;
61640;SDS011;62201;49.966;8.342;2023-04-24T10:58:12;1.77;;;1.00;;
61640;SDS011;62201;49.966;8.342;2023-04-24T11:00:38;1.98;;;0.95;;
61640;SDS011;62201;49.966;8.342;2023-04-24T11:03:06;2.58;;;1.05;;
61640;SDS011;62201;49.966;8.342;2023-04-24T11:11:12;0.93;;;0.60;;
61640;SDS011;62201;49.966;8.342;2023-04-24T11:14:00;1.33;;;0.60;;
61640;SDS011;62201;49.966;8.342;2023-04-24T11:16:28;1.35;;;0.73;;
61640;SDS011;62201;49.966;8.342;2023-04-24T11:26:58;1.05;;;0.70;;
61640;SDS011;62201;49.966;8.342;2023-04-24T11:32:34;3.88;;;0.50;;
61640;SDS011;62201;49.966;8.342;2023-04-24T11:35:27;0.40;;;0.40;;
61640;SDS011;62201;49.966;8.342;2023-04-24T11:37:55;0.90;;;0.50;;
61640;SDS011;62201;49.966;8.342;2023-04-24T11:40:21;0.70;;;0.47;;
61640;SDS011;62201;49.966;8.342;2023-04-24T11:42:51;2.45;;;0.57;;
61640;SDS011;62201;49.966;8.342;2023-04-24T11:45:27;1.45;;;0.63;;
61640;SDS011;62201;49.966;8.342;2023-04-24T11:47:53;0.52;;;0.47;;
61640;SDS011;62201;49.966;8.342;2023-04-24T11:50:19;1.30;;;0.70;;
61640;SDS011;62201;49.966;8.342;2023-04-24T11:52:48;0.80;;;0.80;;
61640;SDS011;62201;49.966;8.342;2023-04-24T11:57:41;3.35;;;1.20;;
61640;SDS011;62201;49.966;8.342;2023-04-24T12:00:14;2.28;;;1.00;;
61640;SDS011;62201;49.966;8.342;2023-04-24T12:02:41;1.48;;;1.10;;
61640;SDS011;62201;49.966;8.342;2023-04-24T12:05:06;2.63;;;1.42;;
61640;SDS011;62201;49.966;8.342;2023-04-24T12:07:32;1.80;;;1.40;;
61640;SDS011;62201;49.966;8.342;2023-04-24T12:10:07;2.80;;;1.30;;
61640;SDS011;62201;49.966;8.342;2023-04-24T12:12:34;3.88;;;1.65;;
61640;SDS011;62201;49.966;8.342;2023-04-24T12:15:00;1.92;;;1.20;;
61640;SDS011;62201;49.966;8.342;2023-04-24T12:17:27;4.40;;;1.15;;
61640;SDS011;62201;49.966;8.342;2023-04-24T12:20:03;5.13;;;1.55;;
61640;SDS011;62201;49.966;8.342;2023-04-24T12:25:24;9.18;;;1.80;;
61640;SDS011;62201;49.966;8.342;2023-04-24T12:27:55;10.65;;;1.83;;
61640;SDS011;62201;49.966;8.342;2023-04-24T12:30:33;6.78;;;1.75;;
61640;SDS011;62201;49.966;8.342;2023-04-24T12:33:15;6.40;;;2.00;;
61640;SDS011;62201;49.966;8.342;2023-04-24T12:35:48;3.92;;;1.88;;
61640;SDS011;62201;49.966;8.342;2023-04-24T12:38:16;4.05;;;1.90;;
61640;SDS011;62201;49.966;8.342;2023-04-24T12:40:46;4.20;;;1.83;;
61640;SDS011;62201;49.966;8.342;2023-04-24T12:43:15;3.03;;;1.70;;
61640;SDS011;62201;49.966;8.342;2023-04-24T12:45:44;3.50;;;1.63;;
61640;SDS011;62201;49.966;8.342;2023-04-24T12:48:10;2.70;;;1.63;;
61640;SDS011;62201;49.966;8.342;2023-04-24T12:50:36;3.17;;;1.98;;
61640;SDS011;62201;49.966;8.342;2023-04-24T12:53:02;5.10;;;2.03;;
61640;SDS011;62201;49.966;8.342;2023-04-24T12:55:28;5.25;;;2.05;;
61640;SDS011;62201;49.966;8.342;2023-04-24T12:57:53;4.88;;;2.05;;
61640;SDS011;62201;49.966;8.342;2023-04-24T13:00:20;3.13;;;1.90;;
61640;SDS011;62201;49.966;8.342;2023-04-24T13:02:45;4.70;;;1.90;;
61640;SDS011;62201;49.966;8.342;2023-04-24T13:05:11;5.25;;;2.20;;
61640;SDS011;62201;49.966;8.342;2023-04-24T13:07:38;3.88;;;2.05;;
61640;SDS011;62201;49.966;8.342;2023-04-24T13:10:04;4.07;;;2.17;;
61640;SDS011;62201;49.966;8.342;2023-04-24T13:12:31;3.75;;;2.00;;
61640;SDS011;62201;49.966;8.342;2023-04-24T13:14:57;4.70;;;1.73;;
61640;SDS011;62201;49.966;8.342;2023-04-24T13:17:23;5.07;;;2.03;;
61640;SDS011;62201;49.966;8.342;2023-04-24T13:19:49;6.15;;;2.28;;
61640;SDS011;62201;49.966;8.342;2023-04-24T13:22:16;5.00;;;2.10;;
61640;SDS011;62201;49.966;8.342;2023-04-24T13:24:43;2.63;;;1.92;;
61640;SDS011;62201;49.966;8.342;2023-04-24T13:27:09;3.97;;;2.15;;
61640;SDS011;62201;49.966;8.342;2023-04-24T13:29:35;4.55;;;2.15;;
61640;SDS011;62201;49.966;8.342;2023-04-24T13:32:02;5.22;;;2.08;;
61640;SDS011;62201;49.966;8.342;2023-04-24T13:34:27;7.18;;;2.35;;
61640;SDS011;62201;49.966;8.342;2023-04-24T13:36:53;6.43;;;2.38;;
61640;SDS011;62201;49.966;8.342;2023-04-24T13:39:19;4.05;;;2.33;;
61640;SDS011;62201;49.966;8.342;2023-04-24T13:41:45;6.15;;;2.10;;
61640;SDS011;62201;49.966;8.342;2023-04-24T13:44:13;4.50;;;2.15;;
61640;SDS011;62201;49.966;8.342;2023-04-24T13:46:39;4.90;;;2.25;;
61640;SDS011;62201;49.966;8.342;2023-04-24T13:49:05;4.28;;;2.15;;
61640;SDS011;62201;49.966;8.342;2023-04-24T13:51:30;5.28;;;2.60;;
61640;SDS011;62201;49.966;8.342;2023-04-24T13:53:58;4.47;;;2.13;;
61640;SDS011;62201;49.966;8.342;2023-04-24T13:56:24;4.22;;;2.00;;
61640;SDS011;62201;49.966;8.342;2023-04-24T13:58:50;5.75;;;2.20;;
61640;SDS011;62201;49.966;8.342;2023-04-24T14:01:16;3.03;;;1.70;;
61640;SDS011;62201;49.966;8.342;2023-04-24T14:03:42;3.83;;;1.83;;
61640;SDS011;62201;49.966;8.342;2023-04-24T14:06:08;4.35;;;1.90;;
61640;SDS011;62201;49.966;8.342;2023-04-24T14:08:33;5.03;;;2.20;;
61640;SDS011;62201;49.966;8.342;2023-04-24T14:10:59;3.45;;;2.20;;
61640;SDS011;62201;49.966;8.342;2023-04-24T14:13:24;3.85;;;2.05;;
61640;SDS011;62201;49.966;8.342;2023-04-24T14:15:50;4.93;;;1.73;;
61640;SDS011;62201;49.966;8.342;2023-04-24T14:18:17;2.88;;;1.80;;
61640;SDS011;62201;49.966;8.342;2023-04-24T14:20:43;7.00;;;1.90;;
61640;SDS011;62201;49.966;8.342;2023-04-24T14:23:08;3.75;;;1.98;;
61640;SDS011;62201;49.966;8.342;2023-04-24T14:25:33;4.60;;;2.00;;
61640;SDS011;62201;49.966;8.342;2023-04-24T14:27:59;5.25;;;2.28;;
61640;SDS011;62201;49.966;8.342;2023-04-24T14:30:24;6.03;;;2.33;;
61640;SDS011;62201;49.966;8.342;2023-04-24T14:32:50;5.70;;;2.17;;
61640;SDS011;62201;49.966;8.342;2023-04-24T14:35:15;7.05;;;2.35;;
61640;SDS011;62201;49.966;8.342;2023-04-24T14:37:40;3.90;;;2.10;;
61640;SDS011;62201;49.966;8.342;2023-04-24T14:40:07;3.45;;;2.00;;
61640;SDS011;62201;49.966;8.342;2023-04-24T14:42:33;3.55;;;2.10;;
61640;SDS011;62201;49.966;8.342;2023-04-24T14:44:59;3.58;;;1.90;;
61640;SDS011;62201;49.966;8.342;2023-04-24T14:47:24;4.22;;;2.08;;
61640;SDS011;62201;49.966;8.342;2023-04-24T14:49:50;5.20;;;1.80;;
61640;SDS011;62201;49.966;8.342;2023-04-24T14:52:15;2.90;;;2.00;;
61640;SDS011;62201;49.966;8.342;2023-04-24T14:54:41;2.30;;;1.90;;
61640;SDS011;62201;49.966;8.342;2023-04-24T14:57:07;4.15;;;1.88;;
61640;SDS011;62201;49.966;8.342;2023-04-24T14:59:32;3.40;;;2.03;;
61640;SDS011;62201;49.966;8.342;2023-04-24T15:01:58;5.38;;;2.05;;
61640;SDS011;62201;49.966;8.342;2023-04-24T15:04:24;2.95;;;1.83;;
61640;SDS011;62201;49.966;8.342;2023-04-24T15:06:52;4.00;;;1.88;;
61640;SDS011;62201;49.966;8.342;2023-04-24T15:09:21;3.55;;;1.95;;
61640;SDS011;62201;49.966;8.342;2023-04-24T15:11:48;3.67;;;2.00;;
61640;SDS011;62201;49.966;8.342;2023-04-24T15:14:14;3.80;;;1.80;;